createdAt,value
2018-07-04T00:01:13.993Z,3.90
2018-07-04T00:03:47.228Z,3.80
2018-07-04T00:06:20.312Z,3.50
2018-07-04T00:08:53.486Z,3.50
2018-07-04T00:11:26.594Z,4.27
2018-07-04T00:13:59.727Z,7.07
2018-07-04T00:16:32.848Z,6.23
2018-07-04T00:19:05.907Z,15.07
2018-07-04T00:21:39.201Z,10.07
2018-07-04T00:24:12.453Z,5.60
2018-07-04T00:26:45.437Z,6.70
2018-07-04T00:29:18.538Z,5.67
2018-07-04T00:31:51.613Z,4.60
2018-07-04T00:34:24.726Z,4.90
2018-07-04T00:36:58.343Z,3.93
2018-07-04T00:39:31.814Z,16.97
2018-07-04T00:42:05.086Z,5.67
2018-07-04T00:44:38.122Z,10.00
2018-07-04T00:47:11.331Z,3.97
2018-07-04T00:49:44.316Z,4.20
2018-07-04T00:52:17.610Z,3.90
2018-07-04T00:54:50.802Z,4.50
2018-07-04T00:57:23.818Z,4.30
2018-07-04T00:59:57.016Z,3.97
2018-07-04T01:02:29.918Z,4.30
2018-07-04T01:05:02.896Z,3.80
2018-07-04T01:07:36.135Z,2.93
2018-07-04T01:10:09.333Z,3.70
2018-07-04T01:12:42.479Z,3.43
2018-07-04T01:15:15.481Z,3.40
2018-07-04T01:17:48.618Z,3.60
2018-07-04T01:20:21.776Z,2.80
2018-07-04T01:22:54.729Z,3.87
2018-07-04T01:25:27.715Z,2.97
2018-07-04T01:28:00.889Z,3.53
2018-07-04T01:30:33.804Z,4.53
2018-07-04T01:33:06.724Z,4.60
2018-07-04T01:35:39.872Z,5.10
2018-07-04T01:38:12.989Z,3.70
2018-07-04T01:40:46.105Z,3.30
2018-07-04T01:43:19.284Z,4.00
2018-07-04T01:45:52.312Z,3.40
2018-07-04T01:48:25.450Z,3.80
2018-07-04T01:50:58.513Z,3.60
2018-07-04T01:53:31.586Z,3.30
2018-07-04T01:56:04.664Z,4.00
2018-07-04T01:58:37.839Z,3.40
2018-07-04T02:01:10.812Z,4.30
2018-07-04T02:03:43.950Z,4.80
2018-07-04T02:06:17.079Z,3.20
2018-07-04T02:08:52.190Z,3.57
2018-07-04T02:11:25.225Z,3.40
2018-07-04T02:13:58.415Z,5.60
2018-07-04T02:16:31.561Z,3.63
2018-07-04T02:19:04.859Z,3.47
2018-07-04T02:21:38.135Z,3.90
2018-07-04T02:24:11.247Z,3.60
2018-07-04T02:26:44.211Z,3.80
2018-07-04T02:29:17.097Z,4.60
2018-07-04T02:31:50.278Z,3.63
2018-07-04T02:34:24.964Z,3.10
2018-07-04T02:36:57.984Z,3.40
2018-07-04T02:39:31.108Z,3.50
2018-07-04T02:42:04.130Z,3.63
2018-07-04T02:44:37.308Z,3.73
2018-07-04T02:47:16.135Z,3.70
2018-07-04T02:49:49.204Z,4.10
2018-07-04T02:52:22.551Z,4.27
2018-07-04T02:54:55.747Z,3.90
2018-07-04T02:57:28.884Z,3.90
2018-07-04T03:00:02.100Z,3.60
2018-07-04T03:02:35.133Z,3.70
2018-07-04T03:05:08.251Z,3.63
2018-07-04T03:07:41.497Z,3.40
2018-07-04T03:10:14.659Z,3.70
2018-07-04T03:12:47.755Z,3.60
2018-07-04T03:15:20.801Z,3.83
2018-07-04T03:17:53.729Z,3.60
2018-07-04T03:20:26.843Z,3.90
2018-07-04T03:22:59.867Z,4.37
2018-07-04T03:25:33.045Z,3.53
2018-07-04T03:28:06.046Z,3.57
2018-07-04T03:30:39.106Z,4.40
2018-07-04T03:33:12.256Z,3.90
2018-07-04T03:35:45.242Z,4.40
2018-07-04T03:38:18.291Z,3.80
2018-07-04T03:40:51.328Z,4.03
2018-07-04T03:43:24.298Z,4.07
2018-07-04T03:45:57.240Z,3.57
2018-07-04T03:48:30.350Z,3.80
2018-07-04T03:51:03.492Z,4.47
2018-07-04T03:53:36.936Z,4.07
2018-07-04T03:56:10.020Z,4.00
2018-07-04T03:58:49.113Z,4.20
2018-07-04T04:01:28.078Z,4.20
2018-07-04T04:04:07.283Z,4.07
2018-07-04T04:06:46.051Z,4.10
2018-07-04T04:09:24.829Z,4.17
2018-07-04T04:12:03.773Z,3.73
2018-07-04T04:14:43.264Z,3.80
2018-07-04T04:17:22.269Z,3.90
2018-07-04T04:20:01.041Z,3.20
2018-07-04T04:22:39.852Z,4.10
2018-07-04T04:25:18.641Z,3.53
2018-07-04T04:27:57.703Z,3.67
2018-07-04T04:30:36.874Z,3.37
2018-07-04T04:33:15.744Z,3.50
2018-07-04T04:35:54.754Z,3.53
2018-07-04T04:38:33.574Z,3.50
2018-07-04T04:41:12.732Z,3.50
2018-07-04T04:43:51.949Z,4.00
2018-07-04T04:46:30.872Z,3.40
2018-07-04T04:49:09.870Z,3.30
2018-07-04T04:51:42.962Z,9.40
2018-07-04T04:54:16.041Z,3.97
2018-07-04T04:56:49.068Z,4.20
2018-07-04T04:59:22.649Z,3.70
2018-07-04T05:01:55.701Z,3.40
2018-07-04T05:04:28.945Z,3.40
2018-07-04T05:07:02.134Z,3.63
2018-07-04T05:09:35.150Z,3.33
2018-07-04T05:12:08.139Z,3.77
2018-07-04T05:14:41.244Z,6.93
2018-07-04T05:17:14.333Z,5.27
2018-07-04T05:19:47.319Z,4.73
2018-07-04T05:22:20.516Z,4.30
2018-07-04T05:24:53.559Z,4.20
2018-07-04T05:27:26.492Z,6.30
2018-07-04T05:29:59.680Z,9.83
2018-07-04T05:32:32.919Z,6.63
2018-07-04T05:35:06.248Z,6.93
2018-07-04T05:37:39.207Z,8.53
2018-07-04T05:40:12.345Z,8.07
2018-07-04T05:42:45.401Z,5.20
2018-07-04T05:45:18.592Z,4.40
2018-07-04T05:47:51.794Z,4.70
2018-07-04T05:50:24.941Z,6.57
2018-07-04T05:52:58.093Z,5.27
2018-07-04T05:55:31.226Z,6.50
2018-07-04T05:58:04.963Z,5.20
2018-07-04T06:00:38.056Z,11.23
2018-07-04T06:03:11.198Z,5.80
2018-07-04T06:05:45.323Z,19.27
2018-07-04T06:08:18.420Z,12.40
2018-07-04T06:10:51.550Z,5.03
2018-07-04T06:13:24.494Z,15.77
2018-07-04T06:15:57.623Z,3.00
2018-07-04T06:18:30.852Z,3.57
2018-07-04T06:21:03.851Z,2.30
2018-07-04T06:23:36.945Z,2.50
2018-07-04T06:26:09.887Z,2.30
2018-07-04T06:28:42.941Z,3.53
2018-07-04T06:31:16.055Z,6.03
2018-07-04T06:33:49.264Z,2.73
2018-07-04T06:36:22.279Z,3.00
2018-07-04T06:38:49.203Z,2.43
2018-07-04T06:41:16.019Z,2.30
2018-07-04T06:43:42.876Z,2.00
2018-07-04T06:46:09.986Z,7.70
2018-07-04T06:48:36.873Z,5.93
2018-07-04T06:51:03.733Z,7.03
2018-07-04T06:53:30.611Z,9.00
2018-07-04T06:55:57.460Z,10.37
2018-07-04T06:58:24.336Z,8.37
2018-07-04T07:00:51.248Z,12.03
2018-07-04T07:03:24.295Z,12.87
2018-07-04T07:05:57.462Z,2.90
2018-07-04T07:08:30.587Z,2.17
2018-07-04T07:11:03.724Z,2.23
2018-07-04T07:13:36.924Z,2.00
2018-07-04T07:16:10.039Z,2.97
2018-07-04T07:18:42.964Z,2.97
2018-07-04T07:21:16.153Z,2.03
2018-07-04T07:23:49.230Z,2.07
2018-07-04T07:26:23.218Z,2.10
2018-07-04T07:28:56.954Z,2.57
2018-07-04T07:31:30.009Z,2.53
2018-07-04T07:34:03.408Z,4.50
2018-07-04T07:36:36.369Z,2.30
2018-07-04T07:39:09.512Z,4.30
2018-07-04T07:41:42.500Z,4.00
2018-07-04T07:44:15.729Z,6.23
2018-07-04T07:46:48.954Z,4.90
2018-07-04T07:49:22.135Z,2.77
2018-07-04T07:51:55.233Z,2.10
2018-07-04T07:54:28.300Z,2.90
2018-07-04T07:57:01.244Z,2.37
2018-07-04T07:59:34.334Z,2.80
2018-07-04T08:02:07.462Z,2.00
2018-07-04T08:04:40.514Z,2.23
2018-07-04T08:07:13.451Z,2.83
2018-07-04T08:09:46.695Z,2.10
2018-07-04T08:12:19.837Z,1.90
2018-07-04T08:14:53.979Z,2.37
2018-07-04T08:17:28.253Z,3.00
2018-07-04T08:20:02.072Z,2.70
2018-07-04T08:22:36.114Z,2.30
2018-07-04T08:25:09.822Z,2.20
2018-07-04T08:27:43.904Z,2.10
2018-07-04T08:30:17.009Z,2.10
2018-07-04T08:32:50.118Z,3.20
2018-07-04T08:35:23.292Z,2.60
2018-07-04T08:37:56.428Z,1.97
2018-07-04T08:40:29.549Z,2.60
2018-07-04T08:43:02.690Z,2.00
2018-07-04T08:45:35.691Z,2.53
2018-07-04T08:48:09.266Z,2.30
2018-07-04T08:50:42.499Z,1.47
2018-07-04T08:53:15.547Z,1.80
2018-07-04T08:55:48.571Z,2.30
2018-07-04T08:58:22.368Z,1.70
2018-07-04T09:00:55.525Z,2.07
2018-07-04T09:03:28.718Z,1.50
2018-07-04T09:06:01.724Z,2.10
2018-07-04T09:08:34.910Z,1.80
2018-07-04T09:11:08.095Z,1.80
2018-07-04T09:13:41.296Z,1.60
2018-07-04T09:16:14.410Z,2.80
2018-07-04T09:18:47.515Z,2.03
2018-07-04T09:21:20.694Z,2.20
2018-07-04T09:23:53.889Z,2.07
2018-07-04T09:26:27.056Z,2.30
2018-07-04T09:29:00.266Z,1.80
2018-07-04T09:31:33.432Z,2.80
2018-07-04T09:34:06.638Z,2.97
2018-07-04T09:36:39.738Z,2.27
2018-07-04T09:39:12.892Z,1.93
2018-07-04T09:41:46.069Z,2.50
2018-07-04T09:44:19.072Z,2.50
2018-07-04T09:46:52.279Z,3.20
2018-07-04T09:49:25.513Z,3.13
2018-07-04T09:51:58.559Z,1.73
2018-07-04T09:54:31.654Z,1.70
2018-07-04T09:57:04.621Z,1.97
2018-07-04T09:59:38.263Z,2.60
2018-07-04T10:02:11.217Z,1.77
2018-07-04T10:04:44.187Z,2.10
2018-07-04T10:07:17.283Z,1.90
2018-07-04T10:09:50.491Z,2.90
2018-07-04T10:12:23.685Z,2.80
2018-07-04T10:14:56.667Z,1.90
2018-07-04T10:17:29.876Z,2.00
2018-07-04T10:20:03.066Z,1.90
2018-07-04T10:22:36.207Z,4.10
2018-07-04T10:25:09.236Z,1.80
2018-07-04T10:27:42.477Z,2.37
2018-07-04T10:30:15.681Z,1.40
2018-07-04T10:32:48.766Z,1.73
2018-07-04T10:35:21.800Z,2.20
2018-07-04T10:37:54.894Z,1.30
2018-07-04T10:40:28.066Z,1.90
2018-07-04T10:43:01.159Z,2.07
2018-07-04T10:45:34.247Z,6.87
2018-07-04T10:48:07.410Z,2.33
2018-07-04T10:50:40.481Z,1.23
2018-07-04T10:53:13.567Z,1.60
2018-07-04T10:55:46.751Z,1.50
2018-07-04T10:58:19.854Z,2.10
2018-07-04T11:00:52.989Z,1.70
2018-07-04T11:03:26.087Z,2.30
2018-07-04T11:05:59.328Z,1.90
2018-07-04T11:08:32.397Z,2.20
2018-07-04T11:11:05.887Z,2.07
2018-07-04T11:13:38.972Z,3.77
2018-07-04T11:16:12.183Z,1.73
2018-07-04T11:18:45.295Z,1.27
2018-07-04T11:21:18.446Z,2.30
2018-07-04T11:23:51.527Z,2.30
2018-07-04T11:26:24.556Z,1.10
2018-07-04T11:28:57.675Z,1.53
2018-07-04T11:31:30.751Z,1.17
2018-07-04T11:34:03.716Z,1.90
2018-07-04T11:36:36.860Z,1.70
2018-07-04T11:39:09.987Z,1.43
2018-07-04T11:41:43.099Z,1.30
2018-07-04T11:44:16.176Z,1.20
2018-07-04T11:46:43.076Z,1.67
2018-07-04T11:49:09.916Z,1.37
2018-07-04T11:51:36.795Z,1.40
2018-07-04T11:54:03.714Z,1.23
2018-07-04T11:56:30.574Z,1.20
2018-07-04T11:58:57.411Z,1.87
2018-07-04T12:01:24.316Z,1.60
2018-07-04T12:03:57.457Z,1.87
2018-07-04T12:06:30.398Z,1.90
2018-07-04T12:08:57.720Z,1.40
2018-07-04T12:11:24.634Z,1.57
2018-07-04T12:13:51.561Z,2.47
2018-07-04T12:16:18.449Z,2.60
2018-07-04T12:18:45.326Z,1.10
2018-07-04T12:21:12.218Z,1.30
2018-07-04T12:23:39.117Z,1.70
2018-07-04T12:26:05.943Z,1.57
2018-07-04T12:28:32.884Z,1.43
2018-07-04T12:30:59.800Z,1.30
2018-07-04T12:33:26.697Z,1.47
2018-07-04T12:35:53.999Z,1.80
2018-07-04T12:38:20.872Z,1.77
2018-07-04T12:40:47.691Z,1.80
2018-07-04T12:43:14.538Z,1.60
2018-07-04T12:45:41.396Z,1.30
2018-07-04T12:48:08.296Z,2.93
2018-07-04T12:50:35.169Z,1.50
2018-07-04T12:53:01.996Z,4.23
2018-07-04T12:55:37.368Z,3.77
2018-07-04T12:58:10.579Z,4.07
2018-07-04T13:00:44.086Z,2.30
2018-07-04T13:03:17.189Z,1.30
2018-07-04T13:05:50.596Z,1.50
2018-07-04T13:08:23.668Z,3.70
2018-07-04T13:10:56.995Z,2.20
2018-07-04T13:13:30.108Z,5.07
2018-07-04T13:16:03.793Z,4.70
2018-07-04T13:18:36.881Z,6.00
2018-07-04T13:21:09.873Z,2.57
2018-07-04T13:23:43.106Z,3.00
2018-07-04T13:26:18.164Z,3.87
2018-07-04T13:28:51.283Z,1.77
2018-07-04T13:31:24.483Z,1.30
2018-07-04T13:33:57.581Z,1.23
2018-07-04T13:36:30.531Z,3.47
2018-07-04T13:39:04.078Z,2.80
2018-07-04T13:41:37.101Z,1.90
2018-07-04T13:44:10.317Z,2.20
2018-07-04T13:46:43.362Z,3.80
2018-07-04T13:49:17.148Z,2.63
2018-07-04T13:51:50.275Z,2.23
2018-07-04T13:54:23.242Z,2.00
2018-07-04T13:56:56.823Z,1.97
2018-07-04T13:59:30.048Z,2.80
2018-07-04T14:02:03.651Z,2.47
2018-07-04T14:04:36.731Z,2.10
2018-07-04T14:07:09.927Z,1.97
2018-07-04T14:09:43.417Z,2.03
2018-07-04T14:12:16.674Z,2.03
2018-07-04T14:14:49.687Z,1.60
2018-07-04T14:17:22.807Z,1.70
2018-07-04T14:19:55.913Z,2.43
2018-07-04T14:22:29.004Z,2.23
2018-07-04T14:25:02.818Z,1.93
2018-07-04T14:27:35.836Z,2.20
2018-07-04T14:30:08.846Z,1.97
2018-07-04T14:32:41.939Z,1.80
2018-07-04T14:35:15.361Z,2.00
2018-07-04T14:37:48.518Z,1.93
2018-07-04T14:40:21.494Z,1.70
2018-07-04T14:42:54.475Z,2.20
2018-07-04T14:45:27.583Z,2.73
2018-07-04T14:48:01.382Z,1.67
2018-07-04T14:50:34.751Z,1.90
2018-07-04T14:53:07.877Z,2.17
2018-07-04T14:55:40.978Z,1.70
2018-07-04T14:58:14.555Z,1.60
2018-07-04T15:00:47.730Z,1.80
2018-07-04T15:03:20.727Z,2.00
2018-07-04T15:05:54.432Z,1.80
2018-07-04T15:08:27.458Z,2.00
2018-07-04T15:11:00.985Z,1.80
2018-07-04T15:13:34.133Z,2.50
2018-07-04T15:16:07.240Z,2.10
2018-07-04T15:18:40.957Z,2.80
2018-07-04T15:21:14.129Z,2.10
2018-07-04T15:23:47.101Z,2.43
2018-07-04T15:26:20.165Z,2.60
2018-07-04T15:28:53.943Z,1.93
2018-07-04T15:31:27.036Z,1.80
2018-07-04T15:34:00.257Z,2.17
2018-07-04T15:36:33.714Z,7.40
2018-07-04T15:39:06.863Z,2.57
2018-07-04T15:41:39.979Z,2.10
2018-07-04T15:44:13.742Z,2.80
2018-07-04T15:46:46.970Z,3.80
2018-07-04T15:49:20.045Z,4.70
2018-07-04T15:51:53.251Z,5.70
2018-07-04T15:54:26.372Z,2.70
2018-07-04T15:56:59.531Z,7.70
2018-07-04T15:59:33.420Z,2.53
2018-07-04T16:02:06.394Z,4.70
2018-07-04T16:04:39.452Z,3.90
2018-07-04T16:07:13.280Z,3.47
2018-07-04T16:09:46.416Z,4.97
2018-07-04T16:12:19.503Z,7.73
2018-07-04T16:14:52.663Z,3.43
2018-07-04T16:17:25.786Z,3.23
2018-07-04T16:19:58.936Z,3.40
2018-07-04T16:22:32.548Z,4.33
2018-07-04T16:25:05.813Z,4.00
2018-07-04T16:27:38.860Z,4.00
2018-07-04T16:30:12.455Z,8.93
2018-07-04T16:32:45.506Z,11.47
2018-07-04T16:35:18.677Z,10.03
2018-07-04T16:37:51.657Z,22.73
2018-07-04T16:40:24.643Z,6.13
2018-07-04T16:42:57.771Z,8.17
2018-07-04T16:45:30.880Z,5.97
2018-07-04T16:48:04.305Z,3.53
2018-07-04T16:50:37.442Z,2.80
2018-07-04T16:53:11.456Z,10.37
2018-07-04T16:55:44.645Z,4.40
2018-07-04T16:58:18.643Z,13.33
2018-07-04T17:00:51.793Z,5.27
2018-07-04T17:03:25.434Z,8.47
2018-07-04T17:05:58.545Z,4.10
2018-07-04T17:08:31.768Z,11.90
2018-07-04T17:11:04.976Z,4.70
2018-07-04T17:13:38.197Z,3.60
2018-07-04T17:16:11.636Z,3.30
2018-07-04T17:18:44.811Z,4.87
2018-07-04T17:21:17.943Z,2.90
2018-07-04T17:23:51.593Z,4.37
2018-07-04T17:26:24.742Z,3.53
2018-07-04T17:28:57.813Z,3.13
2018-07-04T17:31:30.838Z,2.40
2018-07-04T17:34:03.961Z,2.70
2018-07-04T17:36:37.684Z,2.50
2018-07-04T17:39:10.725Z,4.50
2018-07-04T17:41:44.169Z,4.60
2018-07-04T17:44:17.752Z,5.60
2018-07-04T17:46:50.803Z,3.90
2018-07-04T17:49:23.985Z,4.10
2018-07-04T17:52:02.107Z,3.27
2018-07-04T17:54:35.160Z,4.53
2018-07-04T17:57:08.076Z,6.03
2018-07-04T17:59:42.624Z,5.90
2018-07-04T18:02:15.832Z,5.40
2018-07-04T18:04:49.674Z,7.87
2018-07-04T18:07:22.574Z,5.00
2018-07-04T18:09:55.688Z,6.33
2018-07-04T18:12:28.817Z,5.33
2018-07-04T18:15:02.331Z,5.33
2018-07-04T18:17:35.787Z,7.97
2018-07-04T18:20:09.282Z,4.30
2018-07-04T18:22:42.535Z,9.40
2018-07-04T18:25:16.217Z,5.63
2018-07-04T18:27:49.348Z,4.80
2018-07-04T18:30:22.383Z,6.77
2018-07-04T18:32:55.643Z,4.47
2018-07-04T18:35:28.914Z,4.57
2018-07-04T18:38:02.990Z,4.50
2018-07-04T18:40:36.184Z,4.50
2018-07-04T18:43:09.134Z,4.73
2018-07-04T18:45:42.438Z,5.53
2018-07-04T18:48:16.011Z,6.63
2018-07-04T18:50:49.238Z,6.87
2018-07-04T18:53:22.355Z,5.70
2018-07-04T18:55:57.225Z,6.50
2018-07-04T18:58:31.049Z,6.67
2018-07-04T19:01:04.453Z,5.57
2018-07-04T19:03:37.707Z,6.60
2018-07-04T19:06:10.663Z,7.63
2018-07-04T19:08:43.977Z,7.50
2018-07-04T19:11:16.955Z,7.17
2018-07-04T19:13:49.891Z,6.73
2018-07-04T19:16:23.056Z,5.93
2018-07-04T19:18:56.164Z,8.70
2018-07-04T19:21:29.234Z,7.80
2018-07-04T19:24:03.543Z,8.33
2018-07-04T19:26:37.497Z,7.30
2018-07-04T19:29:10.518Z,8.50
2018-07-04T19:31:43.731Z,7.23
2018-07-04T19:34:16.885Z,8.23
2018-07-04T19:36:49.889Z,8.20
2018-07-04T19:39:22.910Z,7.97
2018-07-04T19:41:56.053Z,10.73
2018-07-04T19:44:29.332Z,10.67
2018-07-04T19:47:02.400Z,14.77
2018-07-04T19:49:35.630Z,12.03
2018-07-04T19:52:08.776Z,12.20
2018-07-04T19:54:41.933Z,11.83
2018-07-04T19:57:15.245Z,9.87
2018-07-04T19:59:48.313Z,9.70
2018-07-04T20:02:21.293Z,9.70
2018-07-04T20:04:54.419Z,7.70
2018-07-04T20:07:27.575Z,8.37
2018-07-04T20:10:01.192Z,8.67
2018-07-04T20:12:34.329Z,5.80
2018-07-04T20:15:07.352Z,7.53
2018-07-04T20:17:40.871Z,12.23
2018-07-04T20:20:14.563Z,18.67
2018-07-04T20:22:47.553Z,7.60
2018-07-04T20:25:20.752Z,22.70
2018-07-04T20:27:54.043Z,12.80
2018-07-04T20:30:27.291Z,8.17
2018-07-04T20:33:00.693Z,11.70
2018-07-04T20:35:33.748Z,10.47
2018-07-04T20:38:06.940Z,14.80
2018-07-04T20:40:40.035Z,9.27
2018-07-04T20:43:14.022Z,8.93
2018-07-04T20:45:47.135Z,10.50
2018-07-04T20:48:20.113Z,10.20
2018-07-04T20:50:53.129Z,11.50
2018-07-04T20:53:26.727Z,10.97
2018-07-04T20:55:59.642Z,10.30
2018-07-04T20:58:32.671Z,9.67
2018-07-04T21:01:05.842Z,8.80
2018-07-04T21:03:38.955Z,10.00
2018-07-04T21:06:12.087Z,10.60
2018-07-04T21:08:44.982Z,9.90
2018-07-04T21:11:18.068Z,13.20
2018-07-04T21:13:51.064Z,10.20
2018-07-04T21:16:24.084Z,12.30
2018-07-04T21:18:57.165Z,11.17
2018-07-04T21:21:30.134Z,10.37
2018-07-04T21:24:03.272Z,10.83
2018-07-04T21:26:36.504Z,11.93
2018-07-04T21:29:09.448Z,10.60
2018-07-04T21:31:42.496Z,11.23
2018-07-04T21:34:15.728Z,11.50
2018-07-04T21:36:48.944Z,11.07
2018-07-04T21:39:22.110Z,10.00
2018-07-04T21:41:55.074Z,8.87
2018-07-04T21:44:28.211Z,10.57
2018-07-04T21:47:01.261Z,11.77
2018-07-04T21:49:35.205Z,13.27
2018-07-04T21:52:08.501Z,17.80
2018-07-04T21:54:42.035Z,14.10
2018-07-04T21:57:15.468Z,16.67
2018-07-04T21:59:48.363Z,13.67
2018-07-04T22:02:21.360Z,17.10
2018-07-04T22:04:54.694Z,11.50
2018-07-04T22:07:28.134Z,12.10
2018-07-04T22:10:01.817Z,12.00
2018-07-04T22:12:34.875Z,16.50
2018-07-04T22:15:07.966Z,17.00
2018-07-04T22:17:41.724Z,16.60
2018-07-04T22:20:14.698Z,43.30
2018-07-04T22:22:47.638Z,16.70
2018-07-04T22:25:20.734Z,11.50
2018-07-04T22:27:53.740Z,13.60
2018-07-04T22:30:26.873Z,26.20
2018-07-04T22:33:00.432Z,11.60
2018-07-04T22:35:33.466Z,18.77
2018-07-04T22:38:06.509Z,14.73
2018-07-04T22:40:39.695Z,15.60
2018-07-04T22:43:13.695Z,12.60
2018-07-04T22:45:46.817Z,14.47
2018-07-04T22:48:20.062Z,11.70
2018-07-04T22:50:55.027Z,13.53
2018-07-04T22:53:28.194Z,11.20
2018-07-04T22:56:01.402Z,9.97
2018-07-04T22:58:34.828Z,11.50
2018-07-04T23:01:07.869Z,11.20
2018-07-04T23:03:41.142Z,9.40
2018-07-04T23:06:14.738Z,10.37
2018-07-04T23:08:47.855Z,8.37
2018-07-04T23:11:22.965Z,9.50
2018-07-04T23:13:56.126Z,10.97
2018-07-04T23:16:29.379Z,11.27
2018-07-04T23:19:02.784Z,10.80
2018-07-04T23:21:35.837Z,9.50
2018-07-04T23:24:08.821Z,11.03
2018-07-04T23:26:42.482Z,10.43
2018-07-04T23:29:15.516Z,9.77
2018-07-04T23:31:50.680Z,8.50
2018-07-04T23:34:23.915Z,11.70
2018-07-04T23:36:57.046Z,9.97
2018-07-04T23:39:30.468Z,14.43
2018-07-04T23:44:48.145Z,9.80
2018-07-04T23:47:21.176Z,8.43
2018-07-04T23:49:54.249Z,7.40
2018-07-04T23:52:27.359Z,9.60
2018-07-04T23:55:00.495Z,9.83
2018-07-04T23:57:33.676Z,11.33
